createdAt,value
2023-01-28T00:02:09.741Z,7.85
2023-01-28T00:04:40.268Z,7.18
2023-01-28T00:07:08.759Z,8.23
2023-01-28T00:09:37.112Z,8.68
2023-01-28T00:12:06.015Z,6.78
2023-01-28T00:14:34.240Z,7.63
2023-01-28T00:17:02.398Z,8.30
2023-01-28T00:19:30.534Z,6.88
2023-01-28T00:22:00.298Z,6.03
2023-01-28T00:24:28.661Z,8.13
2023-01-28T00:26:56.939Z,8.07
2023-01-28T00:29:25.140Z,7.75
2023-01-28T00:31:53.554Z,7.82
2023-01-28T00:34:22.668Z,7.93
2023-01-28T00:36:57.745Z,7.50
2023-01-28T00:39:28.787Z,9.05
2023-01-28T00:41:56.978Z,7.10
2023-01-28T00:44:25.483Z,5.53
2023-01-28T00:46:53.739Z,8.40
2023-01-28T00:49:21.961Z,7.35
2023-01-28T00:51:50.179Z,5.57
2023-01-28T00:54:18.736Z,8.80
2023-01-28T00:56:48.366Z,7.97
2023-01-28T00:59:16.772Z,5.68
2023-01-28T01:01:45.616Z,7.45
2023-01-28T01:04:14.050Z,8.30
2023-01-28T01:06:42.704Z,10.35
2023-01-28T01:09:13.183Z,8.23
2023-01-28T01:11:41.360Z,11.93
2023-01-28T01:14:12.348Z,10.05
2023-01-28T01:16:40.616Z,9.48
2023-01-28T01:19:09.506Z,7.65
2023-01-28T01:21:38.445Z,11.95
2023-01-28T01:24:07.202Z,9.40
2023-01-28T01:26:35.411Z,5.13
2023-01-28T01:29:03.982Z,8.45
2023-01-28T01:31:33.592Z,7.63
2023-01-28T01:34:01.822Z,8.57
2023-01-28T01:36:30.069Z,9.40
2023-01-28T01:38:58.332Z,9.77
2023-01-28T01:41:30.068Z,9.43
2023-01-28T01:44:00.225Z,9.90
2023-01-28T01:46:37.763Z,9.73
2023-01-28T01:49:14.923Z,9.55
2023-01-28T01:51:44.421Z,9.55
2023-01-28T01:54:12.892Z,9.95
2023-01-28T01:56:45.414Z,9.82
2023-01-28T01:59:18.159Z,8.65
2023-01-28T02:01:48.907Z,10.32
2023-01-28T02:04:21.071Z,8.50
2023-01-28T02:06:50.214Z,11.02
2023-01-28T02:09:26.006Z,7.75
2023-01-28T02:11:56.579Z,11.35
2023-01-28T02:14:31.338Z,12.15
2023-01-28T02:17:02.916Z,9.85
2023-01-28T02:19:38.927Z,6.25
2023-01-28T02:22:59.029Z,11.65
2023-01-28T02:25:59.387Z,9.27
2023-01-28T02:28:35.766Z,7.97
2023-01-28T02:31:10.404Z,8.35
2023-01-28T02:33:43.626Z,8.93
2023-01-28T02:36:20.108Z,10.93
2023-01-28T02:38:51.595Z,12.05
2023-01-28T02:41:25.430Z,7.78
2023-01-28T02:43:55.261Z,13.63
2023-01-28T02:46:52.686Z,7.70
2023-01-28T02:49:27.726Z,7.10
2023-01-28T02:52:20.691Z,10.02
2023-01-28T02:54:57.457Z,10.68
2023-01-28T02:57:37.110Z,11.27
2023-01-28T03:00:13.339Z,9.15
2023-01-28T03:02:47.090Z,8.07
2023-01-28T03:05:22.494Z,9.88
2023-01-28T03:07:51.262Z,8.75
2023-01-28T03:10:22.738Z,9.57
2023-01-28T03:13:12.202Z,12.13
2023-01-28T03:16:02.340Z,10.60
2023-01-28T03:18:55.059Z,10.05
2023-01-28T03:21:44.760Z,7.38
2023-01-28T03:24:35.082Z,7.93
2023-01-28T03:27:25.342Z,9.98
2023-01-28T03:30:15.614Z,10.63
2023-01-28T03:33:04.279Z,11.23
2023-01-28T03:35:53.049Z,10.05
2023-01-28T03:38:23.120Z,12.48
2023-01-28T03:40:52.535Z,8.93
2023-01-28T03:43:20.814Z,10.10
2023-01-28T03:45:51.673Z,8.07
2023-01-28T03:48:22.185Z,8.25
2023-01-28T03:50:51.047Z,12.73
2023-01-28T03:53:20.622Z,11.00
2023-01-28T03:55:50.860Z,8.60
2023-01-28T03:58:19.969Z,9.27
2023-01-28T04:00:48.287Z,7.78
2023-01-28T04:03:18.255Z,9.77
2023-01-28T04:05:58.941Z,11.05
2023-01-28T04:08:27.768Z,12.50
2023-01-28T04:10:56.226Z,7.78
2023-01-28T04:13:24.586Z,9.68
2023-01-28T04:15:52.780Z,10.20
2023-01-28T04:18:27.337Z,8.85
2023-01-28T04:20:57.055Z,10.40
2023-01-28T04:23:25.290Z,10.20
2023-01-28T04:25:53.626Z,12.02
2023-01-28T04:28:22.253Z,9.80
2023-01-28T04:30:50.522Z,9.18
2023-01-28T04:33:18.783Z,7.47
2023-01-28T04:35:47.026Z,7.38
2023-01-28T04:38:16.689Z,5.20
2023-01-28T04:40:44.918Z,9.02
2023-01-28T04:43:13.598Z,9.90
2023-01-28T04:45:41.947Z,10.93
2023-01-28T04:48:10.228Z,10.43
2023-01-28T04:50:39.577Z,8.82
2023-01-28T04:53:07.840Z,10.25
2023-01-28T04:55:37.533Z,9.10
2023-01-28T04:58:06.137Z,8.18
2023-01-28T05:00:34.442Z,8.85
2023-01-28T05:03:02.661Z,8.27
2023-01-28T05:05:30.969Z,9.60
2023-01-28T05:08:00.044Z,10.05
2023-01-28T05:10:28.739Z,7.45
2023-01-28T05:12:58.466Z,8.57
2023-01-28T05:15:26.688Z,8.18
2023-01-28T05:17:57.247Z,11.77
2023-01-28T05:20:25.507Z,6.38
2023-01-28T05:22:54.111Z,7.15
2023-01-28T05:25:22.457Z,5.82
2023-01-28T05:27:54.430Z,6.15
2023-01-28T05:30:24.153Z,6.38
2023-01-28T05:32:58.852Z,8.65
2023-01-28T05:35:27.115Z,7.18
2023-01-28T05:37:55.260Z,9.40
2023-01-28T05:40:23.804Z,10.90
2023-01-28T05:42:52.002Z,8.25
2023-01-28T05:45:20.368Z,8.40
2023-01-28T05:47:50.080Z,10.43
2023-01-28T05:50:19.019Z,8.55
2023-01-28T05:52:47.240Z,6.80
2023-01-28T05:55:15.492Z,8.80
2023-01-28T05:57:44.657Z,10.63
2023-01-28T06:00:15.210Z,9.23
2023-01-28T06:02:43.923Z,8.63
2023-01-28T06:05:13.498Z,7.90
2023-01-28T06:07:41.774Z,8.63
2023-01-28T06:10:11.223Z,7.72
2023-01-28T06:12:39.351Z,7.95
2023-01-28T06:15:08.683Z,8.00
2023-01-28T06:17:36.889Z,9.20
2023-01-28T06:20:05.679Z,7.00
2023-01-28T06:22:35.397Z,7.85
2023-01-28T06:25:04.448Z,8.45
2023-01-28T06:27:32.719Z,6.78
2023-01-28T06:30:01.612Z,7.55
2023-01-28T06:32:29.958Z,10.90
2023-01-28T06:34:58.605Z,8.43
2023-01-28T06:37:27.251Z,9.70
2023-01-28T06:39:57.142Z,7.97
2023-01-28T06:42:25.939Z,7.85
2023-01-28T06:44:54.064Z,6.43
2023-01-28T06:47:22.325Z,7.90
2023-01-28T06:49:50.839Z,6.72
2023-01-28T06:52:19.084Z,9.10
2023-01-28T06:54:47.264Z,10.00
2023-01-28T06:57:16.879Z,8.68
2023-01-28T06:59:45.133Z,9.20
2023-01-28T07:02:13.876Z,5.65
2023-01-28T07:04:42.199Z,11.50
2023-01-28T07:07:10.413Z,9.38
2023-01-28T07:09:39.021Z,8.05
2023-01-28T07:12:07.736Z,10.05
2023-01-28T07:14:37.255Z,8.40
2023-01-28T07:17:05.454Z,7.60
2023-01-28T07:19:33.701Z,10.93
2023-01-28T07:22:03.251Z,8.90
2023-01-28T07:24:31.998Z,10.63
2023-01-28T07:27:00.230Z,9.38
2023-01-28T07:29:28.385Z,9.05
2023-01-28T07:31:58.220Z,12.07
2023-01-28T07:34:26.554Z,11.95
2023-01-28T07:36:57.292Z,10.15
2023-01-28T07:39:25.719Z,11.20
2023-01-28T07:41:53.955Z,9.40
2023-01-28T07:44:22.462Z,11.43
2023-01-28T07:46:50.802Z,10.52
2023-01-28T07:49:20.575Z,12.90
2023-01-28T07:51:50.626Z,9.15
2023-01-28T07:54:19.007Z,13.82
2023-01-28T07:56:47.446Z,11.02
2023-01-28T07:59:16.023Z,12.80
2023-01-28T08:01:44.390Z,12.85
2023-01-28T08:04:13.081Z,8.07
2023-01-28T08:06:43.396Z,10.68
2023-01-28T08:09:11.608Z,11.98
2023-01-28T08:11:40.667Z,13.15
2023-01-28T08:14:08.890Z,11.90
2023-01-28T08:16:37.254Z,10.52
2023-01-28T08:19:05.503Z,13.45
2023-01-28T08:21:33.884Z,10.85
2023-01-28T08:24:03.638Z,11.57
2023-01-28T08:26:31.933Z,10.30
2023-01-28T08:29:00.099Z,8.73
2023-01-28T08:31:30.484Z,11.18
2023-01-28T08:34:01.341Z,14.15
2023-01-28T08:36:30.431Z,11.68
2023-01-28T08:38:58.629Z,11.50
2023-01-28T08:41:28.641Z,11.30
2023-01-28T08:43:57.169Z,9.80
2023-01-28T08:46:25.879Z,10.18
2023-01-28T08:48:54.237Z,9.02
2023-01-28T08:51:22.715Z,11.45
2023-01-28T08:53:51.017Z,11.32
2023-01-28T08:56:19.688Z,8.55
2023-01-28T08:58:49.552Z,10.85
2023-01-28T09:01:18.048Z,11.60
2023-01-28T09:03:46.354Z,11.93
2023-01-28T09:06:15.243Z,12.45
2023-01-28T09:08:43.548Z,12.10
2023-01-28T09:11:11.943Z,9.88
2023-01-28T09:13:40.275Z,12.50
2023-01-28T09:16:11.121Z,8.85
2023-01-28T09:18:39.423Z,8.25
2023-01-28T09:21:09.189Z,9.48
2023-01-28T09:23:37.828Z,12.98
2023-01-28T09:26:07.638Z,13.98
2023-01-28T09:28:36.698Z,11.55
2023-01-28T09:31:06.437Z,12.75
2023-01-28T09:33:37.871Z,13.50
2023-01-28T09:36:08.575Z,12.20
2023-01-28T09:38:36.935Z,8.80
2023-01-28T09:41:22.560Z,14.60
2023-01-28T09:44:07.472Z,11.07
2023-01-28T09:46:38.581Z,14.73
2023-01-28T09:49:18.554Z,10.05
2023-01-28T09:51:51.709Z,12.63
2023-01-28T09:54:28.899Z,10.57
2023-01-28T09:57:05.700Z,10.73
2023-01-28T09:59:37.458Z,9.25
2023-01-28T10:02:26.278Z,11.20
2023-01-28T10:05:04.297Z,13.40
2023-01-28T10:07:42.707Z,12.73
2023-01-28T10:10:16.504Z,10.13
2023-01-28T10:13:09.647Z,12.30
2023-01-28T10:16:00.929Z,11.73
2023-01-28T10:18:35.802Z,13.45
2023-01-28T10:21:12.524Z,11.38
2023-01-28T10:23:53.409Z,14.23
2023-01-28T10:26:25.724Z,14.73
2023-01-28T10:29:01.966Z,14.98
2023-01-28T10:31:35.563Z,9.60
2023-01-28T10:34:04.662Z,9.80
2023-01-28T10:36:35.147Z,11.95
2023-01-28T10:39:03.620Z,13.45
2023-01-28T10:41:31.870Z,11.85
2023-01-28T10:44:00.325Z,13.50
2023-01-28T10:46:33.601Z,9.88
2023-01-28T10:49:07.446Z,8.65
2023-01-28T10:51:39.015Z,12.60
2023-01-28T10:54:22.029Z,11.25
2023-01-28T10:56:54.091Z,11.57
2023-01-28T10:59:27.084Z,10.77
2023-01-28T11:01:58.039Z,13.45
2023-01-28T11:04:28.557Z,11.93
2023-01-28T11:07:01.332Z,15.68
2023-01-28T11:09:31.652Z,15.07
2023-01-28T11:12:00.809Z,11.80
2023-01-28T11:14:29.273Z,12.43
2023-01-28T11:17:00.164Z,14.30
2023-01-28T11:19:35.585Z,15.10
2023-01-28T11:24:35.909Z,15.85
2023-01-28T11:27:16.374Z,16.52
2023-01-28T11:29:45.621Z,14.50
2023-01-28T11:32:22.329Z,11.43
2023-01-28T11:34:53.045Z,12.48
2023-01-28T11:37:25.973Z,13.43
2023-01-28T11:40:20.067Z,11.63
2023-01-28T11:42:49.923Z,13.70
2023-01-28T11:45:20.549Z,13.88
2023-01-28T11:48:04.902Z,15.10
2023-01-28T11:50:41.429Z,15.32
2023-01-28T11:53:35.974Z,13.60
2023-01-28T11:56:23.940Z,15.90
2023-01-28T11:59:02.509Z,11.80
2023-01-28T12:01:39.700Z,13.82
2023-01-28T12:04:24.339Z,17.00
2023-01-28T12:07:21.104Z,14.93
2023-01-28T12:09:57.177Z,16.20
2023-01-28T12:12:44.874Z,17.88
2023-01-28T12:15:47.882Z,12.68
2023-01-28T12:18:28.673Z,15.65
2023-01-28T12:21:08.378Z,12.85
2023-01-28T12:23:51.089Z,14.25
2023-01-28T12:26:28.148Z,15.98
2023-01-28T12:29:08.798Z,16.10
2023-01-28T12:32:07.316Z,17.80
2023-01-28T12:35:20.478Z,15.43
2023-01-28T12:37:58.127Z,14.68
2023-01-28T12:40:44.836Z,13.48
2023-01-28T12:43:20.378Z,15.80
2023-01-28T12:45:53.022Z,15.48
2023-01-28T12:48:25.161Z,14.90
2023-01-28T12:50:55.351Z,16.23
2023-01-28T12:53:27.310Z,12.10
2023-01-28T12:55:57.810Z,13.77
2023-01-28T12:58:33.365Z,15.50
2023-01-28T13:03:32.593Z,11.15
2023-01-28T13:06:03.614Z,9.50
2023-01-28T13:08:32.622Z,14.57
2023-01-28T13:11:03.414Z,13.60
2023-01-28T13:13:36.130Z,13.48
2023-01-28T13:16:05.824Z,12.93
2023-01-28T13:18:43.745Z,13.32
2023-01-28T13:21:16.911Z,14.70
2023-01-28T13:23:46.508Z,12.05
2023-01-28T13:26:32.450Z,11.45
2023-01-28T13:29:30.170Z,10.52
2023-01-28T13:31:59.558Z,13.18
2023-01-28T13:34:33.525Z,11.48
2023-01-28T13:37:06.365Z,11.02
2023-01-28T13:39:36.806Z,11.18
2023-01-28T13:42:24.733Z,11.80
2023-01-28T13:44:55.071Z,12.00
2023-01-28T13:47:29.998Z,11.80
2023-01-28T13:50:02.679Z,12.05
2023-01-28T13:52:33.716Z,10.70
2023-01-28T13:55:06.552Z,11.85
2023-01-28T13:57:54.539Z,5.30
2023-01-28T14:00:30.780Z,9.60
2023-01-28T14:03:39.320Z,9.05
2023-01-28T14:06:28.117Z,7.90
2023-01-28T14:09:13.163Z,10.13
2023-01-28T14:12:21.052Z,10.63
2023-01-28T14:15:40.935Z,11.40
2023-01-28T14:18:20.063Z,9.20
2023-01-28T14:20:49.452Z,10.13
2023-01-28T14:23:22.129Z,10.88
2023-01-28T14:26:03.800Z,11.07
2023-01-28T14:28:41.251Z,9.93
2023-01-28T14:31:16.104Z,10.57
2023-01-28T14:33:45.410Z,9.95
2023-01-28T14:36:14.307Z,10.23
2023-01-28T14:38:45.180Z,10.13
2023-01-28T14:41:23.397Z,11.30
2023-01-28T14:43:51.893Z,11.10
2023-01-28T14:46:32.450Z,9.93
2023-01-28T14:49:17.423Z,10.27
2023-01-28T14:52:12.346Z,11.35
2023-01-28T14:55:00.584Z,10.70
2023-01-28T14:57:52.944Z,10.50
2023-01-28T15:00:24.432Z,10.68
2023-01-28T15:02:54.152Z,10.00
2023-01-28T15:05:24.428Z,7.88
2023-01-28T15:07:53.256Z,11.23
2023-01-28T15:10:25.756Z,9.52
2023-01-28T15:12:57.510Z,8.60
2023-01-28T15:15:32.725Z,8.40
2023-01-28T15:18:05.463Z,10.00
2023-01-28T15:20:34.447Z,9.18
2023-01-28T15:23:04.864Z,7.38
2023-01-28T15:25:33.337Z,10.45
2023-01-28T15:28:02.669Z,10.88
2023-01-28T15:30:33.136Z,11.32
2023-01-28T15:33:05.715Z,10.52
2023-01-28T15:35:36.765Z,11.57
2023-01-28T15:38:06.110Z,11.48
2023-01-28T15:40:43.476Z,12.25
2023-01-28T15:43:23.091Z,11.32
2023-01-28T15:45:56.016Z,11.93
2023-01-28T15:48:27.673Z,11.13
2023-01-28T15:51:04.519Z,11.07
2023-01-28T15:53:36.495Z,11.00
2023-01-28T15:56:09.785Z,11.18
2023-01-28T15:58:41.779Z,10.80
2023-01-28T16:01:19.747Z,10.82
2023-01-28T16:04:02.785Z,11.60
2023-01-28T16:06:35.577Z,11.00
2023-01-28T16:09:06.447Z,10.98
2023-01-28T16:11:41.626Z,10.10
2023-01-28T16:14:26.694Z,11.55
2023-01-28T16:16:56.817Z,11.55
2023-01-28T16:19:35.228Z,10.88
2023-01-28T16:22:03.940Z,9.55
2023-01-28T16:24:36.397Z,10.73
2023-01-28T16:27:07.148Z,9.85
2023-01-28T16:29:36.963Z,10.07
2023-01-28T16:32:05.867Z,12.38
2023-01-28T16:34:36.058Z,11.20
2023-01-28T16:37:10.481Z,10.80
2023-01-28T16:39:38.972Z,10.70
2023-01-28T16:42:07.552Z,10.70
2023-01-28T16:44:35.830Z,11.75
2023-01-28T16:47:06.052Z,9.98
2023-01-28T16:49:35.758Z,9.85
2023-01-28T16:52:05.223Z,10.32
2023-01-28T16:54:34.755Z,9.25
2023-01-28T16:57:03.158Z,10.43
2023-01-28T16:59:31.477Z,10.70
2023-01-28T17:01:59.719Z,9.88
2023-01-28T17:04:27.976Z,10.30
2023-01-28T17:06:57.713Z,10.77
2023-01-28T17:09:26.124Z,10.52
2023-01-28T17:11:54.309Z,9.88
2023-01-28T17:14:22.553Z,10.55
2023-01-28T17:16:50.901Z,11.82
2023-01-28T17:19:19.746Z,10.05
2023-01-28T17:21:48.078Z,10.07
2023-01-28T17:24:17.813Z,9.32
2023-01-28T17:26:46.173Z,9.52
2023-01-28T17:29:14.462Z,9.30
2023-01-28T17:31:42.876Z,9.63
2023-01-28T17:34:12.385Z,9.55
2023-01-28T17:36:40.611Z,9.68
2023-01-28T17:39:08.886Z,9.75
2023-01-28T17:41:39.002Z,9.80
2023-01-28T17:44:07.514Z,10.35
2023-01-28T17:46:35.886Z,10.82
2023-01-28T17:49:04.135Z,10.23
2023-01-28T17:51:32.340Z,11.15
2023-01-28T17:54:00.999Z,9.77
2023-01-28T17:56:30.661Z,9.35
2023-01-28T17:59:02.661Z,8.73
2023-01-28T18:01:31.795Z,9.05
2023-01-28T18:04:00.994Z,10.70
2023-01-28T18:06:32.653Z,12.52
2023-01-28T18:09:01.222Z,10.52
2023-01-28T18:11:29.916Z,10.38
2023-01-28T18:13:59.849Z,10.95
2023-01-28T18:16:28.401Z,10.27
2023-01-28T18:18:56.974Z,9.90
2023-01-28T18:21:51.191Z,9.55
2023-01-28T18:24:20.268Z,12.95
2023-01-28T18:26:48.592Z,16.83
2023-01-28T18:29:20.770Z,13.40
2023-01-28T18:31:49.778Z,10.50
2023-01-28T18:34:19.085Z,11.40
2023-01-28T18:36:47.615Z,9.50
2023-01-28T18:39:16.201Z,13.98
2023-01-28T18:41:44.980Z,10.50
2023-01-28T18:44:14.921Z,11.02
2023-01-28T18:46:44.710Z,10.60
2023-01-28T18:49:15.549Z,13.35
2023-01-28T18:51:44.659Z,11.63
2023-01-28T18:54:15.742Z,12.95
2023-01-28T18:56:44.782Z,14.45
2023-01-28T18:59:14.489Z,12.20
2023-01-28T19:01:44.915Z,13.80
2023-01-28T19:04:14.164Z,12.95
2023-01-28T19:06:43.507Z,14.07
2023-01-28T19:09:13.693Z,13.57
2023-01-28T19:11:42.894Z,13.15
2023-01-28T19:14:14.168Z,14.45
2023-01-28T19:16:42.801Z,14.88
2023-01-28T19:19:12.577Z,11.45
2023-01-28T19:21:41.135Z,11.85
2023-01-28T19:24:12.022Z,11.07
2023-01-28T19:26:41.069Z,11.52
2023-01-28T19:29:10.486Z,12.35
2023-01-28T19:31:39.633Z,14.50
2023-01-28T19:34:08.621Z,15.85
2023-01-28T19:36:38.725Z,14.77
2023-01-28T19:39:08.794Z,11.90
2023-01-28T19:41:37.477Z,16.48
2023-01-28T19:44:06.011Z,20.02
2023-01-28T19:46:36.134Z,15.82
2023-01-28T19:49:06.057Z,13.45
2023-01-28T19:51:34.344Z,14.02
2023-01-28T19:54:03.936Z,14.30
2023-01-28T19:56:36.167Z,16.23
2023-01-28T19:59:04.897Z,17.00
2023-01-28T20:01:33.139Z,17.08
2023-01-28T20:04:01.931Z,17.00
2023-01-28T20:06:32.270Z,21.33
2023-01-28T20:09:06.033Z,17.50
2023-01-28T20:11:34.407Z,19.30
2023-01-28T20:14:02.840Z,20.27
2023-01-28T20:16:34.147Z,22.70
2023-01-28T20:19:04.737Z,14.57
2023-01-28T20:21:33.930Z,15.00
2023-01-28T20:24:05.083Z,16.35
2023-01-28T20:26:35.561Z,19.83
2023-01-28T20:29:05.213Z,23.52
2023-01-28T20:31:33.906Z,23.50
2023-01-28T20:34:03.030Z,19.67
2023-01-28T20:36:31.483Z,25.33
2023-01-28T20:38:59.909Z,20.92
2023-01-28T20:41:29.665Z,27.60
2023-01-28T20:43:57.927Z,26.52
2023-01-28T20:46:28.989Z,31.27
2023-01-28T20:48:59.292Z,20.13
2023-01-28T20:51:29.536Z,21.95
2023-01-28T20:53:59.121Z,21.13
2023-01-28T20:56:31.345Z,24.88
2023-01-28T20:59:01.863Z,31.60
2023-01-28T21:01:31.799Z,30.75
2023-01-28T21:04:00.607Z,37.42
2023-01-28T21:06:29.083Z,26.40
2023-01-28T21:08:57.572Z,28.75
2023-01-28T21:11:27.481Z,30.45
2023-01-28T21:13:57.521Z,37.42
2023-01-28T21:16:26.109Z,30.77
2023-01-28T21:18:54.399Z,41.38
2023-01-28T21:21:24.228Z,28.25
2023-01-28T21:23:54.948Z,22.23
2023-01-28T21:26:23.181Z,23.42
2023-01-28T21:28:51.547Z,24.30
2023-01-28T21:31:23.583Z,28.48
2023-01-28T21:33:52.673Z,27.17
2023-01-28T21:36:21.972Z,28.95
2023-01-28T21:38:53.478Z,22.95
2023-01-28T21:41:21.753Z,21.10
2023-01-28T21:43:52.201Z,21.02
2023-01-28T21:46:22.018Z,22.05
2023-01-28T21:48:50.718Z,27.45
2023-01-28T21:51:39.550Z,35.22
2023-01-28T21:54:10.774Z,22.08
2023-01-28T21:56:39.099Z,22.70
2023-01-28T21:59:24.767Z,23.48
2023-01-28T22:01:54.706Z,25.98
2023-01-28T22:04:24.022Z,22.73
2023-01-28T22:06:55.112Z,22.23
2023-01-28T22:09:23.828Z,21.60
2023-01-28T22:11:52.330Z,25.45
2023-01-28T22:14:22.127Z,23.38
2023-01-28T22:16:50.550Z,35.55
2023-01-28T22:19:20.833Z,23.58
2023-01-28T22:21:50.124Z,27.63
2023-01-28T22:24:20.618Z,32.42
2023-01-28T22:26:49.909Z,36.53
2023-01-28T22:29:19.919Z,37.75
2023-01-28T22:31:48.913Z,26.20
2023-01-28T22:34:17.806Z,20.85
2023-01-28T22:36:47.869Z,24.27
2023-01-28T22:39:17.789Z,36.42
2023-01-28T22:41:46.844Z,27.52
2023-01-28T22:44:16.096Z,31.98
2023-01-28T22:46:44.385Z,35.15
2023-01-28T22:49:14.961Z,31.67
2023-01-28T22:51:43.789Z,35.55
2023-01-28T22:54:15.044Z,31.08
2023-01-28T22:56:43.548Z,36.13
2023-01-28T22:59:13.095Z,24.52
2023-01-28T23:01:41.382Z,25.77
2023-01-28T23:04:09.934Z,30.50
2023-01-28T23:06:38.419Z,34.90
2023-01-28T23:09:06.649Z,35.55
2023-01-28T23:11:36.407Z,35.63
2023-01-28T23:14:22.600Z,29.38
2023-01-28T23:17:09.393Z,27.58
2023-01-28T23:19:55.221Z,24.05
2023-01-28T23:22:43.451Z,23.30
2023-01-28T23:25:11.835Z,24.63
2023-01-28T23:27:41.454Z,27.55
2023-01-28T23:30:11.025Z,26.92
2023-01-28T23:32:40.533Z,29.65
2023-01-28T23:35:09.525Z,21.88
2023-01-28T23:37:37.757Z,23.25
2023-01-28T23:40:07.268Z,21.55
2023-01-28T23:42:35.564Z,18.92
2023-01-28T23:45:06.024Z,22.50
2023-01-28T23:47:34.328Z,23.00
2023-01-28T23:50:02.561Z,23.90
2023-01-28T23:52:31.276Z,21.85
2023-01-28T23:54:59.556Z,21.13
2023-01-28T23:57:27.828Z,22.50
2023-01-28T23:59:56.122Z,19.13
